sensor_id;sensor_type;location;lat;lon;timestamp;pressure;altitude;pressure_sealevel;temperature
15360;BMP280;7779;49.596;11.070;2023-04-03T00:00:29;99151.16;;;7.87
15360;BMP280;7779;49.596;11.070;2023-04-03T00:02:55;99147.78;;;7.86
15360;BMP280;7779;49.596;11.070;2023-04-03T00:05:21;99154.28;;;7.84
15360;BMP280;7779;49.596;11.070;2023-04-03T00:07:47;99149.03;;;7.81
15360;BMP280;7779;49.596;11.070;2023-04-03T00:10:12;99147.19;;;7.79
15360;BMP280;7779;49.596;11.070;2023-04-03T00:12:39;99150.28;;;7.77
15360;BMP280;7779;49.596;11.070;2023-04-03T00:15:05;99155.66;;;7.71
15360;BMP280;7779;49.596;11.070;2023-04-03T00:17:31;99157.91;;;7.68
15360;BMP280;7779;49.596;11.070;2023-04-03T00:19:57;99150.94;;;7.64
15360;BMP280;7779;49.596;11.070;2023-04-03T00:22:22;99161.44;;;7.60
15360;BMP280;7779;49.596;11.070;2023-04-03T00:24:48;99152.72;;;7.55
15360;BMP280;7779;49.596;11.070;2023-04-03T00:27:14;99162.47;;;7.52
15360;BMP280;7779;49.596;11.070;2023-04-03T00:29:41;99163.84;;;7.49
15360;BMP280;7779;49.596;11.070;2023-04-03T00:32:07;99160.22;;;7.45
15360;BMP280;7779;49.596;11.070;2023-04-03T00:34:32;99154.38;;;7.45
15360;BMP280;7779;49.596;11.070;2023-04-03T00:36:58;99155.84;;;7.43
15360;BMP280;7779;49.596;11.070;2023-04-03T00:39:24;99148.25;;;7.41
15360;BMP280;7779;49.596;11.070;2023-04-03T00:41:50;99151.50;;;7.40
15360;BMP280;7779;49.596;11.070;2023-04-03T00:47:03;99157.00;;;7.37
15360;BMP280;7779;49.596;11.070;2023-04-03T00:49:31;99153.38;;;7.33
15360;BMP280;7779;49.596;11.070;2023-04-03T00:51:57;99153.25;;;7.32
15360;BMP280;7779;49.596;11.070;2023-04-03T00:54:26;99154.88;;;7.31
15360;BMP280;7779;49.596;11.070;2023-04-03T00:56:54;99156.50;;;7.31
15360;BMP280;7779;49.596;11.070;2023-04-03T00:59:30;99155.75;;;7.32
15360;BMP280;7779;49.596;11.070;2023-04-03T01:01:58;99152.25;;;7.30
15360;BMP280;7779;49.596;11.070;2023-04-03T01:04:36;99145.53;;;7.29
15360;BMP280;7779;49.596;11.070;2023-04-03T01:07:11;99152.00;;;7.27
15360;BMP280;7779;49.596;11.070;2023-04-03T01:09:39;99150.00;;;7.23
15360;BMP280;7779;49.596;11.070;2023-04-03T01:12:32;99149.78;;;7.20
15360;BMP280;7779;49.596;11.070;2023-04-03T01:17:42;99148.91;;;7.09
15360;BMP280;7779;49.596;11.070;2023-04-03T01:28:10;99152.75;;;6.96
15360;BMP280;7779;49.596;11.070;2023-04-03T01:31:22;99157.50;;;6.93
15360;BMP280;7779;49.596;11.070;2023-04-03T01:33:50;99156.97;;;6.87
15360;BMP280;7779;49.596;11.070;2023-04-03T01:36:23;99160.72;;;6.82
15360;BMP280;7779;49.596;11.070;2023-04-03T01:38:50;99159.47;;;6.77
15360;BMP280;7779;49.596;11.070;2023-04-03T01:41:17;99159.22;;;6.74
15360;BMP280;7779;49.596;11.070;2023-04-03T01:43:45;99164.56;;;6.69
15360;BMP280;7779;49.596;11.070;2023-04-03T01:46:11;99161.69;;;6.64
15360;BMP280;7779;49.596;11.070;2023-04-03T01:48:37;99159.72;;;6.61
15360;BMP280;7779;49.596;11.070;2023-04-03T01:51:03;99166.91;;;6.58
15360;BMP280;7779;49.596;11.070;2023-04-03T01:53:29;99173.38;;;6.56
15360;BMP280;7779;49.596;11.070;2023-04-03T01:55:55;99168.91;;;6.52
15360;BMP280;7779;49.596;11.070;2023-04-03T01:58:21;99165.78;;;6.44
15360;BMP280;7779;49.596;11.070;2023-04-03T02:00:48;99166.38;;;6.42
15360;BMP280;7779;49.596;11.070;2023-04-03T02:03:14;99168.47;;;6.37
15360;BMP280;7779;49.596;11.070;2023-04-03T02:05:40;99160.63;;;6.33
15360;BMP280;7779;49.596;11.070;2023-04-03T02:08:06;99156.88;;;6.28
15360;BMP280;7779;49.596;11.070;2023-04-03T02:10:32;99161.59;;;6.25
15360;BMP280;7779;49.596;11.070;2023-04-03T02:12:58;99163.09;;;6.23
15360;BMP280;7779;49.596;11.070;2023-04-03T02:15:24;99166.16;;;6.21
15360;BMP280;7779;49.596;11.070;2023-04-03T02:17:50;99166.06;;;6.19
15360;BMP280;7779;49.596;11.070;2023-04-03T02:20:17;99161.09;;;6.19
15360;BMP280;7779;49.596;11.070;2023-04-03T02:22:43;99164.72;;;6.22
15360;BMP280;7779;49.596;11.070;2023-04-03T02:25:09;99166.72;;;6.26
15360;BMP280;7779;49.596;11.070;2023-04-03T02:27:36;99169.56;;;6.31
15360;BMP280;7779;49.596;11.070;2023-04-03T02:30:04;99168.22;;;6.34
15360;BMP280;7779;49.596;11.070;2023-04-03T02:32:31;99167.00;;;6.39
15360;BMP280;7779;49.596;11.070;2023-04-03T02:34:56;99162.38;;;6.44
15360;BMP280;7779;49.596;11.070;2023-04-03T02:37:22;99175.38;;;6.50
15360;BMP280;7779;49.596;11.070;2023-04-03T02:39:49;99166.63;;;6.55
15360;BMP280;7779;49.596;11.070;2023-04-03T02:42:15;99161.19;;;6.59
15360;BMP280;7779;49.596;11.070;2023-04-03T02:44:40;99164.91;;;6.63
15360;BMP280;7779;49.596;11.070;2023-04-03T02:47:08;99167.81;;;6.68
15360;BMP280;7779;49.596;11.070;2023-04-03T02:49:34;99162.19;;;6.70
15360;BMP280;7779;49.596;11.070;2023-04-03T02:52:00;99158.97;;;6.71
15360;BMP280;7779;49.596;11.070;2023-04-03T02:54:25;99160.09;;;6.75
15360;BMP280;7779;49.596;11.070;2023-04-03T02:56:55;99165.31;;;6.78
15360;BMP280;7779;49.596;11.070;2023-04-03T02:59:21;99153.00;;;6.79
15360;BMP280;7779;49.596;11.070;2023-04-03T03:01:47;99156.63;;;6.83
15360;BMP280;7779;49.596;11.070;2023-04-03T03:04:13;99165.94;;;6.85
15360;BMP280;7779;49.596;11.070;2023-04-03T03:06:38;99154.38;;;6.86
15360;BMP280;7779;49.596;11.070;2023-04-03T03:09:04;99165.22;;;6.86
15360;BMP280;7779;49.596;11.070;2023-04-03T03:11:31;99164.34;;;6.86
15360;BMP280;7779;49.596;11.070;2023-04-03T03:13:57;99159.97;;;6.83
15360;BMP280;7779;49.596;11.070;2023-04-03T03:16:24;99163.81;;;6.80
15360;BMP280;7779;49.596;11.070;2023-04-03T03:18:50;99161.97;;;6.77
15360;BMP280;7779;49.596;11.070;2023-04-03T03:21:16;99156.72;;;6.74
15360;BMP280;7779;49.596;11.070;2023-04-03T03:23:42;99168.94;;;6.71
15360;BMP280;7779;49.596;11.070;2023-04-03T03:26:10;99158.72;;;6.68
15360;BMP280;7779;49.596;11.070;2023-04-03T03:28:38;99152.72;;;6.66
15360;BMP280;7779;49.596;11.070;2023-04-03T03:31:06;99164.91;;;6.63
15360;BMP280;7779;49.596;11.070;2023-04-03T03:33:34;99159.72;;;6.61
15360;BMP280;7779;49.596;11.070;2023-04-03T03:36:00;99171.88;;;6.58
15360;BMP280;7779;49.596;11.070;2023-04-03T03:38:26;99168.41;;;6.56
15360;BMP280;7779;49.596;11.070;2023-04-03T03:40:53;99165.66;;;6.53
15360;BMP280;7779;49.596;11.070;2023-04-03T03:43:20;99162.16;;;6.51
15360;BMP280;7779;49.596;11.070;2023-04-03T03:45:54;99157.94;;;6.50
15360;BMP280;7779;49.596;11.070;2023-04-03T03:48:22;99166.63;;;6.45
15360;BMP280;7779;49.596;11.070;2023-04-03T03:50:48;99170.47;;;6.41
15360;BMP280;7779;49.596;11.070;2023-04-03T03:53:16;99160.13;;;6.37
15360;BMP280;7779;49.596;11.070;2023-04-03T03:55:42;99170.56;;;6.33
15360;BMP280;7779;49.596;11.070;2023-04-03T03:58:08;99165.34;;;6.30
15360;BMP280;7779;49.596;11.070;2023-04-03T04:00:35;99175.03;;;6.27
15360;BMP280;7779;49.596;11.070;2023-04-03T04:03:01;99169.78;;;6.24
15360;BMP280;7779;49.596;11.070;2023-04-03T04:05:29;99172.03;;;6.21
15360;BMP280;7779;49.596;11.070;2023-04-03T04:07:55;99174.25;;;6.18
15360;BMP280;7779;49.596;11.070;2023-04-03T04:10:21;99169.00;;;6.15
15360;BMP280;7779;49.596;11.070;2023-04-03T04:12:48;99165.53;;;6.13
15360;BMP280;7779;49.596;11.070;2023-04-03T04:15:15;99168.63;;;6.11
15360;BMP280;7779;49.596;11.070;2023-04-03T04:17:41;99180.66;;;6.06
15360;BMP280;7779;49.596;11.070;2023-04-03T04:20:11;99175.44;;;6.03
15360;BMP280;7779;49.596;11.070;2023-04-03T04:22:37;99173.53;;;6.01
15360;BMP280;7779;49.596;11.070;2023-04-03T04:25:06;99173.31;;;5.98
15360;BMP280;7779;49.596;11.070;2023-04-03T04:27:32;99167.47;;;5.97
15360;BMP280;7779;49.596;11.070;2023-04-03T04:29:58;99178.88;;;5.95
15360;BMP280;7779;49.596;11.070;2023-04-03T04:32:23;99167.19;;;5.94
15360;BMP280;7779;49.596;11.070;2023-04-03T04:34:50;99171.16;;;5.92
15360;BMP280;7779;49.596;11.070;2023-04-03T04:37:15;99171.91;;;5.91
15360;BMP280;7779;49.596;11.070;2023-04-03T04:39:41;99173.38;;;5.89
15360;BMP280;7779;49.596;11.070;2023-04-03T04:42:08;99174.88;;;5.87
15360;BMP280;7779;49.596;11.070;2023-04-03T04:44:39;99173.72;;;5.84
15360;BMP280;7779;49.596;11.070;2023-04-03T04:47:05;99166.13;;;5.82
15360;BMP280;7779;49.596;11.070;2023-04-03T04:49:31;99170.09;;;5.81
15360;BMP280;7779;49.596;11.070;2023-04-03T04:51:57;99173.22;;;5.78
15360;BMP280;7779;49.596;11.070;2023-04-03T04:54:28;99172.78;;;5.74
15360;BMP280;7779;49.596;11.070;2023-04-03T04:56:54;99174.25;;;5.72
15360;BMP280;7779;49.596;11.070;2023-04-03T04:59:20;99170.03;;;5.71
15360;BMP280;7779;49.596;11.070;2023-04-03T05:01:46;99177.34;;;5.69
15360;BMP280;7779;49.596;11.070;2023-04-03T05:04:16;99177.97;;;5.67
15360;BMP280;7779;49.596;11.070;2023-04-03T05:06:44;99187.00;;;5.66
15360;BMP280;7779;49.596;11.070;2023-04-03T05:09:14;99187.78;;;5.65
15360;BMP280;7779;49.596;11.070;2023-04-03T05:11:42;99185.28;;;5.65
15360;BMP280;7779;49.596;11.070;2023-04-03T05:14:09;99196.09;;;5.66
15360;BMP280;7779;49.596;11.070;2023-04-03T05:16:35;99192.88;;;5.67
15360;BMP280;7779;49.596;11.070;2023-04-03T05:19:02;99189.63;;;5.68
15360;BMP280;7779;49.596;11.070;2023-04-03T05:21:28;99198.97;;;5.70
15360;BMP280;7779;49.596;11.070;2023-04-03T05:23:59;99193.56;;;5.74
15360;BMP280;7779;49.596;11.070;2023-04-03T05:26:31;99189.59;;;5.76
15360;BMP280;7779;49.596;11.070;2023-04-03T05:28:58;99204.19;;;5.82
15360;BMP280;7779;49.596;11.070;2023-04-03T05:31:23;99195.63;;;5.88
15360;BMP280;7779;49.596;11.070;2023-04-03T05:33:50;99205.22;;;5.93
15360;BMP280;7779;49.596;11.070;2023-04-03T05:36:17;99208.38;;;6.01
15360;BMP280;7779;49.596;11.070;2023-04-03T05:38:47;99213.00;;;6.06
15360;BMP280;7779;49.596;11.070;2023-04-03T05:41:15;99208.28;;;6.09
15360;BMP280;7779;49.596;11.070;2023-04-03T05:43:43;99203.75;;;6.14
15360;BMP280;7779;49.596;11.070;2023-04-03T05:46:16;99204.25;;;6.20
15360;BMP280;7779;49.596;11.070;2023-04-03T05:48:45;99213.84;;;6.25
15360;BMP280;7779;49.596;11.070;2023-04-03T05:51:24;99209.53;;;6.32
15360;BMP280;7779;49.596;11.070;2023-04-03T05:54:04;99213.41;;;6.39
15360;BMP280;7779;49.596;11.070;2023-04-03T05:56:31;99215.41;;;6.43
15360;BMP280;7779;49.596;11.070;2023-04-03T05:58:57;99222.66;;;6.50
15360;BMP280;7779;49.596;11.070;2023-04-03T06:01:23;99217.44;;;6.57
15360;BMP280;7779;49.596;11.070;2023-04-03T06:03:49;99226.44;;;6.64
15360;BMP280;7779;49.596;11.070;2023-04-03T06:06:15;99222.97;;;6.72
15360;BMP280;7779;49.596;11.070;2023-04-03T06:08:41;99231.19;;;6.81
15360;BMP280;7779;49.596;11.070;2023-04-03T06:11:07;99223.50;;;6.88
15360;BMP280;7779;49.596;11.070;2023-04-03T06:13:34;99225.50;;;6.92
15360;BMP280;7779;49.596;11.070;2023-04-03T06:16:00;99231.75;;;6.97
15360;BMP280;7779;49.596;11.070;2023-04-03T06:18:27;99235.50;;;7.02
15360;BMP280;7779;49.596;11.070;2023-04-03T06:20:54;99235.00;;;7.06
15360;BMP280;7779;49.596;11.070;2023-04-03T06:23:20;99240.25;;;7.09
15360;BMP280;7779;49.596;11.070;2023-04-03T06:25:46;99239.75;;;7.13
15360;BMP280;7779;49.596;11.070;2023-04-03T06:28:12;99234.13;;;7.15
15360;BMP280;7779;49.596;11.070;2023-04-03T06:30:38;99235.13;;;7.17
15360;BMP280;7779;49.596;11.070;2023-04-03T06:33:04;99238.00;;;7.22
15360;BMP280;7779;49.596;11.070;2023-04-03T06:35:30;99243.47;;;7.28
15360;BMP280;7779;49.596;11.070;2023-04-03T06:37:56;99235.50;;;7.32
15360;BMP280;7779;49.596;11.070;2023-04-03T06:40:25;99245.97;;;7.38
15360;BMP280;7779;49.596;11.070;2023-04-03T06:42:51;99246.22;;;7.40
15360;BMP280;7779;49.596;11.070;2023-04-03T06:45:18;99244.72;;;7.42
15360;BMP280;7779;49.596;11.070;2023-04-03T06:47:44;99241.50;;;7.43
15360;BMP280;7779;49.596;11.070;2023-04-03T06:50:11;99250.25;;;7.48
15360;BMP280;7779;49.596;11.070;2023-04-03T06:52:40;99251.31;;;7.52
15360;BMP280;7779;49.596;11.070;2023-04-03T06:55:07;99253.94;;;7.53
15360;BMP280;7779;49.596;11.070;2023-04-03T06:57:33;99250.72;;;7.54
15360;BMP280;7779;49.596;11.070;2023-04-03T06:59:58;99252.84;;;7.60
15360;BMP280;7779;49.596;11.070;2023-04-03T07:02:24;99260.69;;;7.64
15360;BMP280;7779;49.596;11.070;2023-04-03T07:04:50;99263.44;;;7.67
15360;BMP280;7779;49.596;11.070;2023-04-03T07:07:16;99264.44;;;7.69
15360;BMP280;7779;49.596;11.070;2023-04-03T07:09:43;99267.19;;;7.72
15360;BMP280;7779;49.596;11.070;2023-04-03T07:12:08;99270.66;;;7.74
15360;BMP280;7779;49.596;11.070;2023-04-03T07:14:34;99283.38;;;7.77
15360;BMP280;7779;49.596;11.070;2023-04-03T07:17:00;99281.78;;;7.78
15360;BMP280;7779;49.596;11.070;2023-04-03T07:19:26;99281.91;;;7.79
15360;BMP280;7779;49.596;11.070;2023-04-03T07:21:53;99279.88;;;7.85
15360;BMP280;7779;49.596;11.070;2023-04-03T07:24:20;99284.63;;;7.92
15360;BMP280;7779;49.596;11.070;2023-04-03T07:26:52;99288.59;;;8.00
15360;BMP280;7779;49.596;11.070;2023-04-03T07:29:18;99289.84;;;8.05
15360;BMP280;7779;49.596;11.070;2023-04-03T07:31:45;99297.69;;;8.09
15360;BMP280;7779;49.596;11.070;2023-04-03T07:34:11;99296.34;;;8.13
15360;BMP280;7779;49.596;11.070;2023-04-03T07:36:37;99295.47;;;8.12
15360;BMP280;7779;49.596;11.070;2023-04-03T07:39:03;99307.09;;;8.12
15360;BMP280;7779;49.596;11.070;2023-04-03T07:41:29;99300.47;;;8.12
15360;BMP280;7779;49.596;11.070;2023-04-03T07:43:56;99303.09;;;8.14
15360;BMP280;7779;49.596;11.070;2023-04-03T07:46:23;99299.94;;;8.16
15360;BMP280;7779;49.596;11.070;2023-04-03T07:48:48;99313.53;;;8.19
15360;BMP280;7779;49.596;11.070;2023-04-03T07:51:14;99307.19;;;8.23
15360;BMP280;7779;49.596;11.070;2023-04-03T07:53:40;99304.41;;;8.30
15360;BMP280;7779;49.596;11.070;2023-04-03T07:56:06;99308.03;;;8.33
15360;BMP280;7779;49.596;11.070;2023-04-03T07:58:32;99297.78;;;8.40
15360;BMP280;7779;49.596;11.070;2023-04-03T08:00:59;99306.47;;;8.45
15360;BMP280;7779;49.596;11.070;2023-04-03T08:03:25;99306.88;;;8.50
15360;BMP280;7779;49.596;11.070;2023-04-03T08:05:51;99308.97;;;8.55
15360;BMP280;7779;49.596;11.070;2023-04-03T08:08:22;99310.09;;;8.58
15360;BMP280;7779;49.596;11.070;2023-04-03T08:10:53;99306.69;;;8.58
15360;BMP280;7779;49.596;11.070;2023-04-03T08:13:19;99311.34;;;8.54
15360;BMP280;7779;49.596;11.070;2023-04-03T08:15:46;99315.09;;;8.49
15360;BMP280;7779;49.596;11.070;2023-04-03T08:18:14;99315.47;;;8.43
15360;BMP280;7779;49.596;11.070;2023-04-03T08:20:40;99321.84;;;8.40
15360;BMP280;7779;49.596;11.070;2023-04-03T08:23:08;99324.00;;;8.35
15360;BMP280;7779;49.596;11.070;2023-04-03T08:25:39;99325.50;;;8.33
15360;BMP280;7779;49.596;11.070;2023-04-03T08:28:05;99321.25;;;8.32
15360;BMP280;7779;49.596;11.070;2023-04-03T08:30:31;99317.25;;;8.34
15360;BMP280;7779;49.596;11.070;2023-04-03T08:32:56;99323.63;;;8.41
15360;BMP280;7779;49.596;11.070;2023-04-03T08:35:22;99332.69;;;8.50
15360;BMP280;7779;49.596;11.070;2023-04-03T08:37:48;99325.94;;;8.59
15360;BMP280;7779;49.596;11.070;2023-04-03T08:40:16;99314.28;;;8.69
15360;BMP280;7779;49.596;11.070;2023-04-03T08:45:51;99326.88;;;9.02
15360;BMP280;7779;49.596;11.070;2023-04-03T08:48:39;99323.19;;;9.08
15360;BMP280;7779;49.596;11.070;2023-04-03T08:51:18;99332.72;;;9.12
15360;BMP280;7779;49.596;11.070;2023-04-03T08:54:06;99330.22;;;9.12
15360;BMP280;7779;49.596;11.070;2023-04-03T08:56:38;99330.41;;;9.15
15360;BMP280;7779;49.596;11.070;2023-04-03T08:59:12;99335.38;;;9.25
15360;BMP280;7779;49.596;11.070;2023-04-03T09:01:41;99327.28;;;9.39
15360;BMP280;7779;49.596;11.070;2023-04-03T09:04:16;99330.59;;;9.49
15360;BMP280;7779;49.596;11.070;2023-04-03T09:06:50;99333.38;;;9.64
15360;BMP280;7779;49.596;11.070;2023-04-03T09:09:33;99340.28;;;9.77
15360;BMP280;7779;49.596;11.070;2023-04-03T09:12:21;99331.91;;;9.88
15360;BMP280;7779;49.596;11.070;2023-04-03T09:15:22;99334.91;;;9.94
15360;BMP280;7779;49.596;11.070;2023-04-03T09:18:11;99335.56;;;9.92
15360;BMP280;7779;49.596;11.070;2023-04-03T09:20:56;99334.97;;;9.84
15360;BMP280;7779;49.596;11.070;2023-04-03T09:26:25;99339.59;;;9.69
15360;BMP280;7779;49.596;11.070;2023-04-03T09:28:56;99336.09;;;9.67
15360;BMP280;7779;49.596;11.070;2023-04-03T09:31:38;99336.09;;;9.67
15360;BMP280;7779;49.596;11.070;2023-04-03T09:36:54;99328.97;;;9.82
15360;BMP280;7779;49.596;11.070;2023-04-03T09:39:29;99327.91;;;9.90
15360;BMP280;7779;49.596;11.070;2023-04-03T09:42:06;99328.16;;;9.93
15360;BMP280;7779;49.596;11.070;2023-04-03T09:44:38;99330.13;;;9.97
15360;BMP280;7779;49.596;11.070;2023-04-03T09:52:46;99328.44;;;9.86
15360;BMP280;7779;49.596;11.070;2023-04-03T09:55:21;99334.16;;;9.74
15360;BMP280;7779;49.596;11.070;2023-04-03T09:57:58;99330.66;;;9.61
15360;BMP280;7779;49.596;11.070;2023-04-03T10:00:34;99335.72;;;9.51
15360;BMP280;7779;49.596;11.070;2023-04-03T10:03:01;99334.28;;;9.43
15360;BMP280;7779;49.596;11.070;2023-04-03T10:05:40;99323.50;;;9.44
15360;BMP280;7779;49.596;11.070;2023-04-03T10:10:47;99326.41;;;9.38
15360;BMP280;7779;49.596;11.070;2023-04-03T10:13:17;99319.69;;;9.37
15360;BMP280;7779;49.596;11.070;2023-04-03T10:15:55;99325.78;;;9.41
15360;BMP280;7779;49.596;11.070;2023-04-03T10:18:42;99320.25;;;9.45
15360;BMP280;7779;49.596;11.070;2023-04-03T10:21:46;99317.47;;;9.52
15360;BMP280;7779;49.596;11.070;2023-04-03T10:24:48;99304.56;;;9.69
15360;BMP280;7779;49.596;11.070;2023-04-03T10:27:24;99307.84;;;9.79
15360;BMP280;7779;49.596;11.070;2023-04-03T10:30:24;99311.91;;;9.88
15360;BMP280;7779;49.596;11.070;2023-04-03T10:36:12;99310.22;;;9.99
15360;BMP280;7779;49.596;11.070;2023-04-03T10:38:51;99306.09;;;10.11
15360;BMP280;7779;49.596;11.070;2023-04-03T10:41:39;99305.69;;;10.27
15360;BMP280;7779;49.596;11.070;2023-04-03T10:44:29;99302.63;;;10.43
15360;BMP280;7779;49.596;11.070;2023-04-03T10:47:20;99299.13;;;10.52
15360;BMP280;7779;49.596;11.070;2023-04-03T10:50:12;99306.53;;;10.62
15360;BMP280;7779;49.596;11.070;2023-04-03T10:53:01;99307.81;;;10.68
15360;BMP280;7779;49.596;11.070;2023-04-03T10:55:39;99294.44;;;10.68
15360;BMP280;7779;49.596;11.070;2023-04-03T10:58:20;99297.91;;;10.70
15360;BMP280;7779;49.596;11.070;2023-04-03T11:00:50;99293.75;;;10.70
15360;BMP280;7779;49.596;11.070;2023-04-03T11:03:30;99287.84;;;10.81
15360;BMP280;7779;49.596;11.070;2023-04-03T11:06:01;99282.06;;;10.93
15360;BMP280;7779;49.596;11.070;2023-04-03T11:11:27;99279.53;;;11.05
15360;BMP280;7779;49.596;11.070;2023-04-03T11:14:09;99289.13;;;10.99
15360;BMP280;7779;49.596;11.070;2023-04-03T11:16:47;99290.38;;;10.92
15360;BMP280;7779;49.596;11.070;2023-04-03T11:19:34;99278.69;;;10.93
15360;BMP280;7779;49.596;11.070;2023-04-03T11:22:42;99262.78;;;10.92
15360;BMP280;7779;49.596;11.070;2023-04-03T11:27:56;99258.88;;;10.85
15360;BMP280;7779;49.596;11.070;2023-04-03T11:33:15;99243.94;;;10.86
15360;BMP280;7779;49.596;11.070;2023-04-03T11:35:49;99245.75;;;11.00
15360;BMP280;7779;49.596;11.070;2023-04-03T11:38:42;99253.34;;;11.13
15360;BMP280;7779;49.596;11.070;2023-04-03T11:41:11;99238.28;;;11.13
15360;BMP280;7779;49.596;11.070;2023-04-03T11:44:03;99249.63;;;11.08
15360;BMP280;7779;49.596;11.070;2023-04-03T11:46:50;99243.25;;;11.00
15360;BMP280;7779;49.596;11.070;2023-04-03T11:58:17;99245.13;;;10.91
15360;BMP280;7779;49.596;11.070;2023-04-03T12:08:50;99251.16;;;10.70
15360;BMP280;7779;49.596;11.070;2023-04-03T12:11:33;99232.56;;;10.67
15360;BMP280;7779;49.596;11.070;2023-04-03T12:14:04;99238.44;;;10.67
15360;BMP280;7779;49.596;11.070;2023-04-03T12:19:34;99233.28;;;10.77
15360;BMP280;7779;49.596;11.070;2023-04-03T12:24:30;99216.34;;;10.86
15360;BMP280;7779;49.596;11.070;2023-04-03T12:35:29;99195.94;;;11.17
15360;BMP280;7779;49.596;11.070;2023-04-03T12:38:19;99202.31;;;11.12
15360;BMP280;7779;49.596;11.070;2023-04-03T12:41:18;99196.78;;;11.05
15360;BMP280;7779;49.596;11.070;2023-04-03T12:46:36;99194.06;;;11.02
15360;BMP280;7779;49.596;11.070;2023-04-03T12:49:33;99187.38;;;11.14
15360;BMP280;7779;49.596;11.070;2023-04-03T12:52:16;99186.34;;;11.23
15360;BMP280;7779;49.596;11.070;2023-04-03T12:54:45;99189.13;;;11.28
15360;BMP280;7779;49.596;11.070;2023-04-03T12:59:41;99180.53;;;11.24
15360;BMP280;7779;49.596;11.070;2023-04-03T13:02:27;99178.91;;;11.25
15360;BMP280;7779;49.596;11.070;2023-04-03T13:04:57;99194.72;;;11.24
15360;BMP280;7779;49.596;11.070;2023-04-03T13:07:36;99179.56;;;11.22
15360;BMP280;7779;49.596;11.070;2023-04-03T13:12:35;99189.13;;;11.28
15360;BMP280;7779;49.596;11.070;2023-04-03T13:15:14;99179.22;;;11.29
15360;BMP280;7779;49.596;11.070;2023-04-03T13:17:42;99185.19;;;11.31
15360;BMP280;7779;49.596;11.070;2023-04-03T13:20:28;99171.91;;;11.32
15360;BMP280;7779;49.596;11.070;2023-04-03T13:23:02;99182.59;;;11.29
15360;BMP280;7779;49.596;11.070;2023-04-03T13:25:35;99175.44;;;11.23
15360;BMP280;7779;49.596;11.070;2023-04-03T13:28:05;99181.69;;;11.16
15360;BMP280;7779;49.596;11.070;2023-04-03T13:30:36;99174.63;;;11.11
15360;BMP280;7779;49.596;11.070;2023-04-03T13:33:18;99175.31;;;11.08
15360;BMP280;7779;49.596;11.070;2023-04-03T13:35:44;99166.13;;;11.09
15360;BMP280;7779;49.596;11.070;2023-04-03T13:40:56;99164.22;;;11.18
15360;BMP280;7779;49.596;11.070;2023-04-03T13:43:29;99170.09;;;11.18
15360;BMP280;7779;49.596;11.070;2023-04-03T13:48:23;99170.56;;;11.13
15360;BMP280;7779;49.596;11.070;2023-04-03T13:51:02;99177.03;;;11.09
15360;BMP280;7779;49.596;11.070;2023-04-03T13:53:32;99169.28;;;11.06
15360;BMP280;7779;49.596;11.070;2023-04-03T13:56:13;99172.25;;;11.01
15360;BMP280;7779;49.596;11.070;2023-04-03T13:59:19;99178.63;;;10.96
15360;BMP280;7779;49.596;11.070;2023-04-03T14:07:11;99162.75;;;10.84
15360;BMP280;7779;49.596;11.070;2023-04-03T14:09:37;99168.63;;;10.85
15360;BMP280;7779;49.596;11.070;2023-04-03T14:12:15;99171.22;;;10.86
15360;BMP280;7779;49.596;11.070;2023-04-03T14:14:42;99161.09;;;10.85
15360;BMP280;7779;49.596;11.070;2023-04-03T14:17:20;99164.28;;;10.82
15360;BMP280;7779;49.596;11.070;2023-04-03T14:19:48;99164.75;;;10.77
15360;BMP280;7779;49.596;11.070;2023-04-03T14:22:18;99164.44;;;10.72
15360;BMP280;7779;49.596;11.070;2023-04-03T14:24:45;99166.06;;;10.72
15360;BMP280;7779;49.596;11.070;2023-04-03T14:27:20;99172.59;;;10.70
15360;BMP280;7779;49.596;11.070;2023-04-03T14:29:47;99172.31;;;10.65
15360;BMP280;7779;49.596;11.070;2023-04-03T14:32:16;99171.84;;;10.59
15360;BMP280;7779;49.596;11.070;2023-04-03T14:34:43;99164.03;;;10.55
15360;BMP280;7779;49.596;11.070;2023-04-03T14:37:17;99162.22;;;10.52
15360;BMP280;7779;49.596;11.070;2023-04-03T14:39:44;99164.50;;;10.50
15360;BMP280;7779;49.596;11.070;2023-04-03T14:42:18;99173.72;;;10.51
15360;BMP280;7779;49.596;11.070;2023-04-03T14:44:45;99160.56;;;10.53
15360;BMP280;7779;49.596;11.070;2023-04-03T14:47:13;99160.88;;;10.57
15360;BMP280;7779;49.596;11.070;2023-04-03T14:49:42;99143.66;;;10.62
15360;BMP280;7779;49.596;11.070;2023-04-03T14:52:26;99157.69;;;10.71
15360;BMP280;7779;49.596;11.070;2023-04-03T14:54:54;99151.00;;;10.72
15360;BMP280;7779;49.596;11.070;2023-04-03T14:57:24;99151.22;;;10.75
15360;BMP280;7779;49.596;11.070;2023-04-03T14:59:51;99147.94;;;10.76
15360;BMP280;7779;49.596;11.070;2023-04-03T15:02:36;99138.81;;;10.76
15360;BMP280;7779;49.596;11.070;2023-04-03T15:05:09;99146.22;;;10.75
15360;BMP280;7779;49.596;11.070;2023-04-03T15:07:47;99145.44;;;10.76
15360;BMP280;7779;49.596;11.070;2023-04-03T15:10:21;99149.41;;;10.72
15360;BMP280;7779;49.596;11.070;2023-04-03T15:12:48;99165.75;;;10.67
15360;BMP280;7779;49.596;11.070;2023-04-03T15:15:16;99157.06;;;10.62
15360;BMP280;7779;49.596;11.070;2023-04-03T15:17:42;99157.38;;;10.55
15360;BMP280;7779;49.596;11.070;2023-04-03T15:20:16;99160.47;;;10.52
15360;BMP280;7779;49.596;11.070;2023-04-03T15:22:42;99163.53;;;10.48
15360;BMP280;7779;49.596;11.070;2023-04-03T15:25:08;99163.19;;;10.43
15360;BMP280;7779;49.596;11.070;2023-04-03T15:27:36;99156.13;;;10.38
15360;BMP280;7779;49.596;11.070;2023-04-03T15:30:04;99154.19;;;10.34
15360;BMP280;7779;49.596;11.070;2023-04-03T15:32:30;99158.22;;;10.32
15360;BMP280;7779;49.596;11.070;2023-04-03T15:34:56;99163.97;;;10.31
15360;BMP280;7779;49.596;11.070;2023-04-03T15:37:22;99164.75;;;10.30
15360;BMP280;7779;49.596;11.070;2023-04-03T15:39:48;99187.31;;;10.30
15360;BMP280;7779;49.596;11.070;2023-04-03T15:42:14;99173.56;;;10.25
15360;BMP280;7779;49.596;11.070;2023-04-03T15:44:40;99179.88;;;10.20
15360;BMP280;7779;49.596;11.070;2023-04-03T15:47:06;99168.72;;;10.15
15360;BMP280;7779;49.596;11.070;2023-04-03T15:49:35;99169.25;;;10.11
15360;BMP280;7779;49.596;11.070;2023-04-03T15:52:01;99164.88;;;10.09
15360;BMP280;7779;49.596;11.070;2023-04-03T15:54:27;99171.44;;;10.07
15360;BMP280;7779;49.596;11.070;2023-04-03T15:56:55;99173.06;;;10.06
15360;BMP280;7779;49.596;11.070;2023-04-03T15:59:21;99172.84;;;10.03
15360;BMP280;7779;49.596;11.070;2023-04-03T16:01:48;99174.38;;;10.01
15360;BMP280;7779;49.596;11.070;2023-04-03T16:04:16;99177.44;;;9.97
15360;BMP280;7779;49.596;11.070;2023-04-03T16:06:42;99170.53;;;9.95